Airfield :







YOU CAN JOIN US ON...

 
LOGIN :

Register | Disclaimer

   EN    FR    IT 

 









Legend :    VFR   Marginal VFR   IFR   Intensive IFR   Very Intensive IFR
Visi :
Ceiling :
>= 8 km
>= 3000ft
5 to 8 km
1000 to 3000 ft
1500m to 5 km
500 to 1000 ft
800 to 1500m
200 to 500 ft
< 800m
< 200 ft
Symbols :   Thunderstorms  Fog  Heavy snow  Heavy precipitations  Wind > 20 kt







- Airport Elevation : 827 ft


KDDH - William H. Morse State

CURRENT METAR :
  • 181027Z AUTO 00000KT 1/4SM FG BKN001 OVC085 19/18 A2997 RMK AO2 T01940183 $

EXPIRED METARs :
  • 181020Z AUTO 35003KT 1/4SM FG SCT001 OVC090 19/18 A2997 RMK AO2 T01940183 $
  • 180954Z AUTO 00000KT 6SM BR BKN090 19/18 A2995 RMK AO2 SLP139 T01890183 $
  • 180916Z AUTO 19004KT 8SM SCT003 19/18 A2994 RMK AO2 T01890183 $
  • 180854Z AUTO 00000KT 6SM BR OVC002 19/19 A2994 RMK AO2 SLP132 T01940189 55001 $
  • 180754Z AUTO 00000KT 3SM BR OVC002 20/19 A2992 RMK AO2 SLP127 T02000194 $
  • 180746Z AUTO 00000KT 1 3/4SM BR OVC002 20/19 A2992 RMK AO2 T02000194 $

TAF N/A
KZBW FIR / North America



MET'MAP, your aeronautical weather chart ! - Copyright ORBIFLY December 2007 - Disclaimer

ORBIFLY MET'MAP TEAM :

Programming & Development : Alexandra Zaïnal
Concept & Development : Baudouin d'Aumeries
Co-Development & Prog : Marc-Olivier Méhu
Technical & hardware support : Manuel Goepfert

Contact : metmap@orbifly.com




SOURCES & CREDITS :

   NOAA